createdAt,value
2019-02-19T00:00:29.301Z,17.42
2019-02-19T00:02:57.495Z,16.93
2019-02-19T00:05:25.715Z,16.62
2019-02-19T00:07:53.910Z,17.27
2019-02-19T00:10:22.406Z,16.82
2019-02-19T00:12:50.882Z,17.77
2019-02-19T00:15:19.420Z,16.82
2019-02-19T00:17:47.851Z,17.85
2019-02-19T00:20:16.061Z,17.65
2019-02-19T00:22:44.260Z,16.85
2019-02-19T00:25:12.572Z,17.82
2019-02-19T00:27:41.149Z,17.92
2019-02-19T00:30:09.347Z,17.27
2019-02-19T00:32:37.555Z,17.15
2019-02-19T00:35:06.528Z,17.57
2019-02-19T00:37:34.741Z,17.82
2019-02-19T00:40:03.246Z,17.10
2019-02-19T00:42:31.764Z,16.82
2019-02-19T00:44:59.923Z,17.85
2019-02-19T00:47:28.131Z,17.52
2019-02-19T00:49:56.327Z,17.60
2019-02-19T00:52:27.611Z,17.52
2019-02-19T00:54:55.794Z,13.25
2019-02-19T00:57:24.003Z,17.67
2019-02-19T00:59:52.201Z,17.17
2019-02-19T01:02:20.406Z,18.05
2019-02-19T01:04:48.602Z,17.50
2019-02-19T01:07:16.814Z,18.23
2019-02-19T01:09:45.023Z,17.98
2019-02-19T01:12:13.224Z,18.15
2019-02-19T01:14:41.681Z,18.70
2019-02-19T01:17:09.888Z,18.57
2019-02-19T01:19:38.091Z,18.45
2019-02-19T01:22:06.295Z,17.70
2019-02-19T01:24:34.497Z,18.87
2019-02-19T01:27:02.693Z,18.92
2019-02-19T01:29:30.910Z,18.73
2019-02-19T01:31:59.091Z,19.20
2019-02-19T01:34:27.299Z,18.98
2019-02-19T01:36:55.491Z,19.05
2019-02-19T01:39:23.717Z,19.77
2019-02-19T01:41:51.908Z,18.50
2019-02-19T01:44:20.114Z,19.20
2019-02-19T01:46:48.303Z,19.15
2019-02-19T01:49:16.505Z,19.45
2019-02-19T01:51:44.706Z,19.92
2019-02-19T01:54:12.919Z,20.82
2019-02-19T01:56:41.119Z,20.43
2019-02-19T01:59:09.686Z,21.15
2019-02-19T02:01:37.909Z,20.72
2019-02-19T02:04:06.119Z,21.27
2019-02-19T02:06:34.315Z,21.82
2019-02-19T02:09:02.780Z,21.00
2019-02-19T02:11:30.993Z,20.62
2019-02-19T02:13:59.186Z,23.45
2019-02-19T02:16:27.675Z,22.32
2019-02-19T02:18:55.872Z,22.05
2019-02-19T02:21:24.083Z,22.07
2019-02-19T02:23:52.326Z,22.58
2019-02-19T02:26:20.534Z,22.93
2019-02-19T02:28:49.047Z,23.83
2019-02-19T02:31:17.248Z,23.62
2019-02-19T02:33:45.689Z,23.40
2019-02-19T02:36:13.898Z,24.65
2019-02-19T02:38:42.105Z,24.70
2019-02-19T02:41:10.310Z,23.30
2019-02-19T02:43:38.508Z,23.60
2019-02-19T02:46:06.716Z,23.85
2019-02-19T02:48:34.910Z,23.57
2019-02-19T02:51:03.114Z,23.80
2019-02-19T02:53:31.308Z,23.87
2019-02-19T02:55:59.505Z,24.25
2019-02-19T02:58:27.721Z,24.23
2019-02-19T03:00:55.992Z,25.10
2019-02-19T03:03:24.214Z,25.25
2019-02-19T03:06:01.735Z,25.35
2019-02-19T03:08:29.938Z,25.35
2019-02-19T03:10:58.134Z,26.65
2019-02-19T03:13:26.331Z,27.65
2019-02-19T03:16:02.221Z,27.07
2019-02-19T03:18:24.463Z,28.85
2019-02-19T03:20:53.092Z,26.80
2019-02-19T03:23:21.296Z,27.22
2019-02-19T03:25:49.497Z,27.55
2019-02-19T03:28:17.714Z,27.93
2019-02-19T03:30:45.914Z,29.80
2019-02-19T03:33:14.126Z,27.90
2019-02-19T03:35:42.308Z,26.37
2019-02-19T03:38:10.525Z,27.67
2019-02-19T03:40:38.704Z,28.65
2019-02-19T03:43:07.174Z,26.70
2019-02-19T03:45:35.368Z,28.25
2019-02-19T03:48:03.562Z,27.35
2019-02-19T03:50:31.772Z,28.27
2019-02-19T03:52:59.965Z,28.07
2019-02-19T03:55:28.204Z,28.75
2019-02-19T03:57:56.366Z,28.77
2019-02-19T04:00:24.581Z,28.17
2019-02-19T04:02:52.784Z,29.27
2019-02-19T04:05:20.984Z,25.50
2019-02-19T04:07:49.178Z,29.20
2019-02-19T04:10:17.384Z,29.42
2019-02-19T04:12:45.881Z,30.35
2019-02-19T04:15:14.089Z,30.80
2019-02-19T04:17:42.283Z,29.82
2019-02-19T04:20:10.495Z,31.93
2019-02-19T04:22:38.715Z,31.40
2019-02-19T04:25:06.924Z,31.62
2019-02-19T04:27:35.449Z,32.20
2019-02-19T04:30:04.632Z,31.65
2019-02-19T04:32:32.833Z,32.08
2019-02-19T04:35:01.059Z,30.88
2019-02-19T04:37:30.083Z,33.83
2019-02-19T04:39:58.336Z,34.13
2019-02-19T04:42:26.544Z,32.23
2019-02-19T04:44:54.743Z,33.10
2019-02-19T04:47:22.954Z,34.35
2019-02-19T04:49:51.151Z,33.20
2019-02-19T04:52:19.356Z,34.75
2019-02-19T04:54:47.907Z,35.68
2019-02-19T04:57:16.119Z,34.05
2019-02-19T04:59:44.775Z,38.38
2019-02-19T05:02:12.981Z,37.53
2019-02-19T05:04:41.171Z,38.58
2019-02-19T05:07:09.389Z,39.58
2019-02-19T05:09:37.578Z,38.42
2019-02-19T05:12:06.084Z,38.60
2019-02-19T05:14:34.299Z,40.63
2019-02-19T05:17:02.512Z,38.50
2019-02-19T05:19:30.712Z,40.45
2019-02-19T05:21:58.911Z,40.15
2019-02-19T05:24:27.448Z,38.02
2019-02-19T05:26:55.656Z,39.38
2019-02-19T05:29:23.870Z,39.63
2019-02-19T05:31:52.072Z,37.35
2019-02-19T05:34:20.636Z,36.25
2019-02-19T05:36:48.840Z,35.98
2019-02-19T05:39:17.029Z,35.28
2019-02-19T05:41:45.253Z,37.13
2019-02-19T05:44:13.507Z,36.10
2019-02-19T05:46:49.627Z,35.43
2019-02-19T05:49:11.642Z,35.15
2019-02-19T05:51:39.842Z,34.23
2019-02-19T05:54:08.050Z,33.20
2019-02-19T05:56:36.565Z,32.63
2019-02-19T05:59:04.765Z,32.58
2019-02-19T06:01:33.340Z,33.95
2019-02-19T06:04:01.532Z,33.58
2019-02-19T06:06:30.094Z,33.90
2019-02-19T06:08:58.304Z,31.27
2019-02-19T06:11:26.506Z,32.73
2019-02-19T06:13:54.717Z,34.60
2019-02-19T06:16:23.289Z,33.15
2019-02-19T06:18:51.482Z,31.60
2019-02-19T06:21:19.698Z,32.28
2019-02-19T06:23:47.892Z,32.75
2019-02-19T06:26:16.104Z,31.70
2019-02-19T06:28:44.297Z,31.23
2019-02-19T06:31:12.524Z,30.50
2019-02-19T06:33:40.739Z,32.40
2019-02-19T06:36:08.962Z,31.87
2019-02-19T06:38:37.145Z,33.42
2019-02-19T06:41:05.651Z,31.27
2019-02-19T06:43:33.853Z,31.82
2019-02-19T06:46:02.049Z,31.30
2019-02-19T06:48:30.251Z,31.20
2019-02-19T06:50:58.479Z,31.85
2019-02-19T06:53:27.023Z,31.52
2019-02-19T06:55:55.230Z,30.02
2019-02-19T06:58:23.426Z,30.55
2019-02-19T07:00:51.635Z,31.25
2019-02-19T07:03:21.727Z,32.03
2019-02-19T07:05:49.933Z,29.02
2019-02-19T07:08:18.430Z,28.70
2019-02-19T07:10:46.633Z,29.67
2019-02-19T07:13:14.843Z,28.27
2019-02-19T07:15:43.055Z,26.45
2019-02-19T07:18:11.256Z,26.57
2019-02-19T07:20:39.452Z,27.40
2019-02-19T07:23:07.667Z,26.33
2019-02-19T07:25:35.876Z,25.15
2019-02-19T07:28:04.439Z,25.40
2019-02-19T07:30:32.642Z,26.82
2019-02-19T07:33:01.183Z,24.00
2019-02-19T07:35:29.386Z,23.27
2019-02-19T07:37:57.616Z,23.20
2019-02-19T07:40:26.119Z,23.57
2019-02-19T07:42:54.324Z,24.00
2019-02-19T07:45:22.514Z,21.55
2019-02-19T07:47:50.717Z,23.57
2019-02-19T07:50:19.221Z,22.67
2019-02-19T07:52:47.449Z,23.73
2019-02-19T07:55:15.658Z,22.32
2019-02-19T07:57:43.873Z,22.17
2019-02-19T08:00:13.628Z,23.25
2019-02-19T08:02:41.865Z,22.85
2019-02-19T08:05:10.418Z,22.52
2019-02-19T08:07:38.620Z,22.48
2019-02-19T08:10:09.825Z,20.92
2019-02-19T08:12:38.320Z,22.27
2019-02-19T08:15:08.993Z,20.68
2019-02-19T08:17:37.200Z,21.55
2019-02-19T08:20:15.478Z,20.45
2019-02-19T08:22:36.955Z,20.43
2019-02-19T08:25:05.844Z,21.05
2019-02-19T08:27:34.351Z,20.35
2019-02-19T08:30:02.558Z,21.48
2019-02-19T08:32:30.749Z,19.62
2019-02-19T08:34:59.055Z,20.48
2019-02-19T08:37:27.270Z,21.15
2019-02-19T08:39:55.716Z,20.77
2019-02-19T08:42:23.919Z,19.52
2019-02-19T08:44:52.134Z,21.15
2019-02-19T08:47:20.324Z,21.05
2019-02-19T08:49:48.521Z,19.82
2019-02-19T08:52:18.656Z,21.25
2019-02-19T08:54:46.926Z,21.52
2019-02-19T08:57:15.152Z,19.60
2019-02-19T08:59:43.333Z,20.10
2019-02-19T09:02:11.580Z,20.10
2019-02-19T09:04:40.118Z,20.08
2019-02-19T09:07:08.706Z,20.35
2019-02-19T09:09:36.904Z,19.02
2019-02-19T09:12:05.413Z,19.42
2019-02-19T09:14:33.609Z,18.27
2019-02-19T09:17:02.173Z,18.00
2019-02-19T09:19:30.370Z,18.27
2019-02-19T09:21:58.578Z,18.35
2019-02-19T09:24:26.779Z,17.42
2019-02-19T09:26:54.997Z,16.87
2019-02-19T09:29:23.200Z,17.50
2019-02-19T09:31:51.675Z,17.07
2019-02-19T09:34:19.888Z,17.23
2019-02-19T09:36:48.096Z,15.70
2019-02-19T09:39:16.300Z,16.40
2019-02-19T09:41:44.495Z,15.53
2019-02-19T09:44:12.704Z,15.32
2019-02-19T09:46:40.903Z,14.53
2019-02-19T09:49:09.468Z,14.85
2019-02-19T09:51:37.678Z,15.25
2019-02-19T09:54:05.888Z,15.15
2019-02-19T09:56:34.159Z,14.25
2019-02-19T09:59:02.363Z,14.55
2019-02-19T10:01:30.582Z,13.55
2019-02-19T10:03:58.781Z,14.60
2019-02-19T10:06:26.995Z,13.32
2019-02-19T10:08:55.187Z,13.75
2019-02-19T10:11:23.749Z,13.50
2019-02-19T10:13:51.946Z,12.68
2019-02-19T10:16:20.143Z,13.03
2019-02-19T10:18:48.361Z,13.68
2019-02-19T10:21:16.553Z,12.63
2019-02-19T10:23:44.762Z,11.83
2019-02-19T10:26:12.970Z,12.20
2019-02-19T10:28:41.181Z,12.53
2019-02-19T10:31:09.378Z,12.63
2019-02-19T10:33:37.607Z,12.30
2019-02-19T10:36:05.796Z,13.78
2019-02-19T10:38:34.021Z,12.85
2019-02-19T10:41:02.214Z,12.45
2019-02-19T10:43:30.714Z,12.85
2019-02-19T10:45:58.920Z,12.65
2019-02-19T10:48:27.491Z,13.10
2019-02-19T10:50:55.954Z,12.15
2019-02-19T10:53:24.147Z,11.68
2019-02-19T10:55:52.361Z,12.45
2019-02-19T10:58:23.051Z,12.10
2019-02-19T11:00:50.513Z,10.20
2019-02-19T11:03:18.995Z,11.78
2019-02-19T11:05:47.219Z,11.20
2019-02-19T11:08:15.401Z,11.40
2019-02-19T11:10:43.614Z,11.40
2019-02-19T11:13:11.814Z,11.03
2019-02-19T11:15:40.020Z,11.50
2019-02-19T11:18:08.217Z,11.35
2019-02-19T11:20:36.709Z,11.97
2019-02-19T11:23:05.290Z,11.65
2019-02-19T11:25:33.505Z,12.03
2019-02-19T11:28:01.703Z,12.18
2019-02-19T11:30:29.900Z,10.72
2019-02-19T11:32:58.394Z,11.28
2019-02-19T11:35:26.895Z,11.78
2019-02-19T11:37:55.372Z,9.98
2019-02-19T11:40:23.844Z,10.95
2019-02-19T11:42:52.083Z,11.45
2019-02-19T11:45:20.607Z,11.00
2019-02-19T11:47:49.095Z,11.48
2019-02-19T11:50:17.308Z,11.53
2019-02-19T11:52:45.502Z,11.68
2019-02-19T11:55:15.954Z,12.40
2019-02-19T11:57:44.146Z,12.18
2019-02-19T12:00:16.086Z,11.63
2019-02-19T12:02:44.262Z,11.20
2019-02-19T12:05:12.463Z,12.47
2019-02-19T12:07:40.692Z,11.15
2019-02-19T12:10:09.503Z,11.60
2019-02-19T12:12:37.681Z,12.00
2019-02-19T12:15:08.679Z,11.57
2019-02-19T12:17:36.911Z,11.53
2019-02-19T12:20:06.968Z,11.33
2019-02-19T12:22:35.173Z,11.20
2019-02-19T12:25:03.447Z,11.22
2019-02-19T12:27:31.642Z,9.93
2019-02-19T12:29:59.869Z,11.25
2019-02-19T12:32:28.398Z,11.18
2019-02-19T12:34:56.610Z,11.30
2019-02-19T12:37:24.816Z,10.23
2019-02-19T12:39:53.016Z,9.95
2019-02-19T12:42:21.219Z,9.88
2019-02-19T12:44:49.416Z,10.45
2019-02-19T12:47:17.955Z,10.72
2019-02-19T12:49:46.174Z,10.00
2019-02-19T12:52:14.730Z,10.32
2019-02-19T12:54:42.919Z,10.03
2019-02-19T12:57:11.122Z,9.73
2019-02-19T12:59:39.330Z,10.55
2019-02-19T13:02:07.526Z,9.75
2019-02-19T13:04:35.754Z,12.03
2019-02-19T13:07:03.936Z,10.75
2019-02-19T13:09:32.153Z,11.57
2019-02-19T13:12:00.355Z,11.73
2019-02-19T13:14:28.554Z,13.22
2019-02-19T13:16:57.093Z,11.12
2019-02-19T13:19:25.298Z,12.00
2019-02-19T13:21:53.515Z,12.20
2019-02-19T13:24:21.728Z,12.78
2019-02-19T13:26:51.097Z,12.33
2019-02-19T13:29:19.335Z,12.28
2019-02-19T13:31:47.527Z,12.55
2019-02-19T13:34:15.736Z,11.60
2019-02-19T13:36:43.932Z,13.35
2019-02-19T13:39:12.494Z,13.15
2019-02-19T13:41:40.954Z,13.03
2019-02-19T13:44:09.154Z,12.07
2019-02-19T13:46:37.377Z,12.55
2019-02-19T13:49:11.982Z,12.90
2019-02-19T13:51:36.118Z,12.28
2019-02-19T13:54:05.963Z,12.05
2019-02-19T13:56:34.192Z,12.43
2019-02-19T13:59:02.401Z,11.63
2019-02-19T14:01:30.608Z,10.75
2019-02-19T14:03:58.815Z,12.05
2019-02-19T14:06:27.309Z,10.82
2019-02-19T14:08:55.518Z,11.12
2019-02-19T14:11:24.062Z,10.95
2019-02-19T14:13:54.188Z,9.90
2019-02-19T14:16:26.967Z,10.58
2019-02-19T14:18:56.824Z,10.82
2019-02-19T14:21:29.463Z,12.20
2019-02-19T14:23:59.310Z,11.28
2019-02-19T14:26:45.219Z,13.22
2019-02-19T14:29:30.353Z,8.88
2019-02-19T14:32:03.118Z,8.58
2019-02-19T14:34:48.293Z,8.90
2019-02-19T14:37:27.101Z,7.25
2019-02-19T14:40:10.199Z,8.68
2019-02-19T14:42:46.005Z,8.03
2019-02-19T14:45:18.798Z,7.40
2019-02-19T14:48:04.489Z,8.48
2019-02-19T14:50:37.448Z,7.33
2019-02-19T14:53:19.543Z,7.60
2019-02-19T14:56:05.624Z,8.68
2019-02-19T14:58:51.306Z,9.43
2019-02-19T15:01:21.133Z,9.43
2019-02-19T15:04:07.238Z,8.58
2019-02-19T15:06:46.570Z,6.17
2019-02-19T15:09:25.393Z,6.33
2019-02-19T15:11:55.231Z,8.35
2019-02-19T15:14:30.846Z,7.15
2019-02-19T15:17:01.974Z,4.78
2019-02-19T15:19:47.981Z,4.72
2019-02-19T15:22:17.838Z,4.60
2019-02-19T15:25:05.474Z,5.22
2019-02-19T15:27:35.316Z,6.05
2019-02-19T15:30:14.677Z,6.50
2019-02-19T15:32:44.487Z,6.08
2019-02-19T15:35:41.152Z,6.70
2019-02-19T15:38:20.255Z,7.42
2019-02-19T15:40:50.434Z,7.35
2019-02-19T15:43:32.611Z,7.22
2019-02-19T15:48:59.472Z,7.75
2019-02-19T15:51:34.995Z,8.73
2019-02-19T15:54:11.077Z,9.75
2019-02-19T15:56:55.715Z,10.28
2019-02-19T15:59:34.289Z,10.75
2019-02-19T16:02:23.160Z,11.60
2019-02-19T16:05:11.383Z,11.80
2019-02-19T16:07:47.628Z,10.58
2019-02-19T16:10:26.097Z,10.40
2019-02-19T16:13:02.593Z,10.18
2019-02-19T16:15:32.391Z,9.58
2019-02-19T16:18:18.509Z,9.55
2019-02-19T16:21:04.697Z,8.83
2019-02-19T16:23:34.529Z,8.50
2019-02-19T16:26:05.210Z,7.70
2019-02-19T16:28:43.749Z,8.28
2019-02-19T16:31:19.286Z,7.72
2019-02-19T16:33:49.447Z,7.33
2019-02-19T16:36:28.781Z,7.10
2019-02-19T16:39:01.337Z,7.53
2019-02-19T16:41:31.187Z,7.92
2019-02-19T16:44:04.090Z,7.75
2019-02-19T16:46:45.813Z,8.25
2019-02-19T16:49:15.682Z,7.90
2019-02-19T16:51:48.727Z,8.00
2019-02-19T16:54:18.865Z,8.50
2019-02-19T16:56:48.702Z,8.73
2019-02-19T16:59:34.811Z,9.28
2019-02-19T17:02:15.341Z,8.40
2019-02-19T17:04:53.923Z,8.85
2019-02-19T17:07:32.232Z,8.83
2019-02-19T17:10:20.459Z,7.67
2019-02-19T17:12:53.217Z,9.68
2019-02-19T17:15:39.403Z,8.88
2019-02-19T17:18:09.252Z,8.58
2019-02-19T17:20:39.131Z,8.98
2019-02-19T17:23:08.983Z,8.13
2019-02-19T17:25:41.499Z,9.23
2019-02-19T17:28:14.090Z,9.18
2019-02-19T17:30:43.945Z,9.55
2019-02-19T17:33:23.033Z,9.25
2019-02-19T17:35:53.296Z,9.85
2019-02-19T17:38:31.958Z,10.03
2019-02-19T17:41:09.097Z,9.45
2019-02-19T17:43:41.633Z,9.63
2019-02-19T17:46:14.543Z,8.55
2019-02-19T17:48:44.597Z,9.83
2019-02-19T17:51:14.764Z,9.00
2019-02-19T17:53:47.866Z,9.03
2019-02-19T17:56:21.102Z,9.28
2019-02-19T17:59:00.049Z,9.40
2019-02-19T18:01:40.858Z,9.88
2019-02-19T18:04:11.148Z,9.50
2019-02-19T18:06:47.153Z,7.53
2019-02-19T18:09:19.986Z,8.70
2019-02-19T18:11:55.726Z,8.65
2019-02-19T18:14:25.544Z,8.35
2019-02-19T18:17:11.757Z,8.43
2019-02-19T18:19:40.248Z,8.98
2019-02-19T18:22:08.484Z,9.45
2019-02-19T18:24:36.684Z,9.20
2019-02-19T18:27:04.982Z,9.68
2019-02-19T18:29:33.149Z,9.83
2019-02-19T18:32:01.628Z,9.68
2019-02-19T18:34:30.128Z,9.10
2019-02-19T18:36:58.332Z,9.08
2019-02-19T18:39:26.536Z,9.33
2019-02-19T18:41:54.740Z,7.83
2019-02-19T18:44:22.951Z,9.00
2019-02-19T18:46:51.151Z,8.58
2019-02-19T18:49:19.407Z,8.63
2019-02-19T18:51:47.995Z,8.15
2019-02-19T18:54:16.186Z,8.55
2019-02-19T18:56:51.328Z,8.83
2019-02-19T19:01:43.997Z,8.15
2019-02-19T19:04:12.357Z,8.48
2019-02-19T19:06:42.890Z,8.88
2019-02-19T19:09:11.099Z,8.28
2019-02-19T19:11:42.053Z,8.30
2019-02-19T19:14:10.371Z,8.88
2019-02-19T19:16:38.591Z,8.40
2019-02-19T19:19:07.187Z,8.35
2019-02-19T19:21:35.388Z,7.67
2019-02-19T19:24:03.584Z,7.72
2019-02-19T19:29:07.174Z,7.83
2019-02-19T19:31:35.729Z,8.40
2019-02-19T19:34:07.836Z,7.75
2019-02-19T19:39:04.808Z,7.92
2019-02-19T19:41:33.021Z,8.35
2019-02-19T19:44:01.214Z,8.20
2019-02-19T19:46:29.441Z,7.58
2019-02-19T19:48:57.644Z,9.30
2019-02-19T19:51:25.852Z,9.20
2019-02-19T19:53:56.604Z,8.03
2019-02-19T19:56:24.820Z,9.43
2019-02-19T19:58:53.431Z,8.45
2019-02-19T20:01:21.875Z,8.98
2019-02-19T20:03:50.040Z,7.25
2019-02-19T20:06:20.199Z,7.75
2019-02-19T20:08:48.414Z,8.73
2019-02-19T20:11:39.186Z,8.20
2019-02-19T20:14:00.064Z,7.78
2019-02-19T20:16:32.678Z,8.00
2019-02-19T20:19:02.504Z,8.28
2019-02-19T20:21:33.748Z,8.13
2019-02-19T20:24:04.862Z,12.05
2019-02-19T20:26:34.700Z,8.43
2019-02-19T20:29:11.251Z,8.20
2019-02-19T20:31:39.780Z,9.50
2019-02-19T20:34:12.299Z,7.33
2019-02-19T20:36:50.082Z,7.60
2019-02-19T20:39:15.542Z,7.25
2019-02-19T20:41:43.732Z,7.75
2019-02-19T20:44:16.089Z,8.30
2019-02-19T20:46:53.587Z,7.50
2019-02-19T20:49:19.060Z,8.00
2019-02-19T20:51:47.323Z,8.78
2019-02-19T20:54:28.379Z,8.55
2019-02-19T20:56:58.179Z,7.95
2019-02-19T20:59:26.703Z,8.20
2019-02-19T21:01:54.969Z,9.40
2019-02-19T21:04:23.180Z,8.80
2019-02-19T21:06:51.411Z,8.28
2019-02-19T21:09:19.607Z,8.50
2019-02-19T21:11:50.940Z,8.63
2019-02-19T21:14:19.136Z,10.75
2019-02-19T21:16:47.415Z,9.65
2019-02-19T21:19:15.669Z,9.10
2019-02-19T21:21:45.171Z,8.83
2019-02-19T21:24:13.532Z,9.73
2019-02-19T21:26:42.045Z,9.63
2019-02-19T21:29:10.250Z,9.88
2019-02-19T21:31:40.287Z,9.23
2019-02-19T21:34:08.368Z,9.78
2019-02-19T21:36:36.566Z,8.88
2019-02-19T21:39:05.567Z,9.90
2019-02-19T21:41:33.776Z,9.68
2019-02-19T21:44:02.037Z,10.03
2019-02-19T21:46:31.882Z,8.38
2019-02-19T21:49:00.071Z,9.85
2019-02-19T21:51:28.289Z,10.20
2019-02-19T21:53:56.495Z,10.63
2019-02-19T21:56:24.689Z,9.90
2019-02-19T21:58:52.882Z,11.20
2019-02-19T22:01:21.103Z,10.08
2019-02-19T22:03:49.312Z,10.13
2019-02-19T22:06:17.525Z,9.90
2019-02-19T22:08:45.717Z,9.43
2019-02-19T22:11:13.914Z,9.55
2019-02-19T22:13:42.137Z,10.65
2019-02-19T22:16:10.331Z,11.00
2019-02-19T22:18:38.575Z,11.63
2019-02-19T22:21:23.393Z,11.78
2019-02-19T22:23:51.652Z,12.03
2019-02-19T22:26:19.863Z,11.65
2019-02-19T22:28:48.437Z,12.33
2019-02-19T22:31:16.612Z,12.98
2019-02-19T22:33:44.828Z,13.00
2019-02-19T22:36:13.019Z,12.68
2019-02-19T22:38:41.656Z,12.15
2019-02-19T22:41:09.848Z,12.60
2019-02-19T22:43:38.090Z,12.93
2019-02-19T22:46:06.289Z,12.95
2019-02-19T22:48:34.475Z,13.32
2019-02-19T22:51:02.691Z,13.68
2019-02-19T22:53:48.905Z,14.33
2019-02-19T22:56:19.114Z,15.00
2019-02-19T22:58:47.587Z,14.60
2019-02-19T23:01:17.425Z,14.93
2019-02-19T23:03:45.614Z,16.07
2019-02-19T23:06:13.827Z,16.17
2019-02-19T23:08:42.025Z,15.68
2019-02-19T23:11:10.235Z,15.65
2019-02-19T23:13:38.625Z,15.65
2019-02-19T23:16:06.923Z,16.00
2019-02-19T23:18:35.449Z,17.05
2019-02-19T23:21:03.662Z,16.52
2019-02-19T23:23:32.334Z,15.40
2019-02-19T23:26:09.586Z,16.40
2019-02-19T23:28:40.178Z,16.52
2019-02-19T23:31:08.117Z,15.45
2019-02-19T23:33:36.311Z,16.50
2019-02-19T23:36:09.147Z,14.90
2019-02-19T23:38:37.634Z,17.00
2019-02-19T23:41:07.113Z,15.43
2019-02-19T23:43:35.728Z,16.12
2019-02-19T23:46:03.936Z,14.63
2019-02-19T23:48:32.133Z,16.75
2019-02-19T23:51:00.354Z,15.98
2019-02-19T23:53:28.547Z,16.15
2019-02-19T23:55:56.738Z,17.25
2019-02-19T23:58:25.277Z,15.80
